Time;durP1;ratioP1;P1;durP2;ratioP2;P2;SDS_P1;SDS_P2;PMS_P1;PMS_P2;Temp;Humidity;BMP_temperature;BMP_pressure;BME280_temperature;BME280_humidity;BME280_pressure;Samples;Min_cycle;Max_cycle;Signal;HPM_P1;HPM_P2
2022/12/09 00:02:06;;;;;;;50.65;26.73;;;;;;;;;;5073972;28;20207;-66
2022/12/09 00:04:34;;;;;;;47.92;27.10;;;;;;;;;;5074049;28;20204;-66
2022/12/09 00:07:01;;;;;;;41.35;26.10;;;;;;;;;;5073692;28;20737;-67
2022/12/09 00:09:28;;;;;;;44.17;24.23;;;;;;;;;;5074117;28;20247;-65
2022/12/09 00:11:55;;;;;;;53.55;25.98;;;;;;;;;;5074069;28;20305;-66
2022/12/09 00:14:24;;;;;;;47.47;27.10;;;;;;;;;;5073679;28;20201;-67
2022/12/09 00:16:51;;;;;;;47.05;27.13;;;;;;;;;;5073271;28;20223;-66
2022/12/09 00:19:19;;;;;;;44.35;24.83;;;;;;;;;;5073410;28;20212;-66
2022/12/09 00:21:46;;;;;;;44.58;25.95;;;;;;;;;;5073652;28;20222;-66
2022/12/09 00:24:14;;;;;;;49.60;26.30;;;;;;;;;;5073741;28;20203;-65
2022/12/09 00:26:41;;;;;;;49.35;26.58;;;;;;;;;;5073377;28;20239;-66
2022/12/09 00:29:08;;;;;;;49.05;26.35;;;;;;;;;;5073184;28;20209;-65
2022/12/09 00:31:38;;;;;;;45.28;27.30;;;;;;;;;;5073606;28;20283;-65
2022/12/09 00:34:06;;;;;;;50.45;24.83;;;;;;;;;;5073578;28;20206;-66
2022/12/09 00:36:33;;;;;;;48.63;28.52;;;;;;;;;;5073326;28;20670;-66
2022/12/09 00:39:01;;;;;;;54.75;25.50;;;;;;;;;;5073550;28;20290;-66
2022/12/09 00:41:28;;;;;;;44.88;25.83;;;;;;;;;;5073080;28;20311;-66
2022/12/09 00:43:55;;;;;;;54.20;28.13;;;;;;;;;;5073218;28;20642;-66
2022/12/09 00:46:22;;;;;;;51.92;28.63;;;;;;;;;;5073509;28;20291;-66
2022/12/09 00:48:51;;;;;;;56.05;28.70;;;;;;;;;;5073438;28;20238;-65
2022/12/09 00:51:19;;;;;;;48.97;27.65;;;;;;;;;;5073183;28;20200;-66
2022/12/09 00:53:47;;;;;;;48.53;27.05;;;;;;;;;;5073279;28;20228;-66
2022/12/09 00:56:14;;;;;;;49.08;26.20;;;;;;;;;;5073473;28;20200;-65
2022/12/09 00:58:41;;;;;;;51.58;27.60;;;;;;;;;;5073599;28;20639;-66
2022/12/09 01:01:08;;;;;;;50.90;27.10;;;;;;;;;;5073553;28;20555;-66
2022/12/09 01:03:36;;;;;;;49.45;28.20;;;;;;;;;;5073430;28;20558;-66
2022/12/09 01:06:09;;;;;;;47.47;27.13;;;;;;;;;;5072925;28;20207;-66
2022/12/09 01:08:36;;;;;;;47.03;26.73;;;;;;;;;;5073279;28;20192;-66
2022/12/09 01:11:08;;;;;;;54.47;26.55;;;;;;;;;;5073003;28;20197;-66
2022/12/09 01:13:36;;;;;;;49.25;26.85;;;;;;;;;;5072896;28;20207;-66
2022/12/09 01:16:03;;;;;;;57.38;27.50;;;;;;;;;;5072668;28;20204;-65
2022/12/09 01:18:30;;;;;;;53.80;28.77;;;;;;;;;;5073238;28;20609;-66
2022/12/09 01:20:58;;;;;;;53.83;26.80;;;;;;;;;;5072966;28;20192;-66
2022/12/09 01:23:27;;;;;;;54.88;29.00;;;;;;;;;;5072765;28;20208;-66
2022/12/09 01:25:54;;;;;;;52.22;27.02;;;;;;;;;;5072792;28;20192;-66
2022/12/09 01:28:21;;;;;;;51.35;28.80;;;;;;;;;;5076747;28;20192;-65
2022/12/09 01:30:48;;;;;;;54.28;28.05;;;;;;;;;;5076630;28;20199;-66
2022/12/09 01:33:15;;;;;;;60.90;30.17;;;;;;;;;;5076568;28;20221;-66
2022/12/09 01:35:42;;;;;;;56.33;31.98;;;;;;;;;;5076886;28;20204;-66
2022/12/09 01:38:10;;;;;;;53.40;30.27;;;;;;;;;;5076558;28;20196;-66
2022/12/09 01:40:38;;;;;;;60.67;30.65;;;;;;;;;;5076890;28;20197;-66
2022/12/09 01:43:11;;;;;;;52.13;30.58;;;;;;;;;;5076873;28;20552;-65
2022/12/09 01:45:40;;;;;;;53.88;30.98;;;;;;;;;;5076424;28;20185;-66
2022/12/09 01:48:10;;;;;;;50.80;28.92;;;;;;;;;;5076715;28;20251;-65
2022/12/09 01:50:38;;;;;;;53.35;30.38;;;;;;;;;;5076322;28;20203;-65
2022/12/09 01:53:06;;;;;;;59.70;30.02;;;;;;;;;;5076689;28;20555;-65
2022/12/09 01:55:33;;;;;;;67.70;32.67;;;;;;;;;;5076463;28;20192;-65
2022/12/09 01:58:02;;;;;;;54.85;31.17;;;;;;;;;;5076449;28;20197;-65
2022/12/09 02:00:29;;;;;;;58.47;31.77;;;;;;;;;;5076205;28;20411;-65
2022/12/09 02:02:57;;;;;;;51.10;29.45;;;;;;;;;;5076452;28;20197;-65
2022/12/09 02:05:24;;;;;;;55.10;30.25;;;;;;;;;;5076581;28;20228;-66
2022/12/09 02:07:51;;;;;;;51.95;29.55;;;;;;;;;;5076741;28;20201;-66
2022/12/09 02:10:19;;;;;;;53.35;30.52;;;;;;;;;;5076139;28;20199;-65
2022/12/09 02:12:50;;;;;;;49.20;31.73;;;;;;;;;;5075950;28;20231;-66
2022/12/09 02:15:21;;;;;;;46.60;29.17;;;;;;;;;;5076564;28;20191;-66
2022/12/09 02:17:51;;;;;;;43.33;26.83;;;;;;;;;;5075943;28;20189;-66
2022/12/09 02:20:24;;;;;;;49.28;27.98;;;;;;;;;;5076200;28;20234;-65
2022/12/09 02:22:56;;;;;;;54.92;27.38;;;;;;;;;;5076142;28;20191;-66
2022/12/09 02:25:28;;;;;;;46.60;29.25;;;;;;;;;;5076102;28;20188;-66
2022/12/09 02:28:09;;;;;;;42.85;25.58;;;;;;;;;;5075475;28;20745;-66
2022/12/09 02:30:40;;;;;;;38.15;24.77;;;;;;;;;;5075645;28;20195;-66
2022/12/09 02:33:18;;;;;;;35.65;21.92;;;;;;;;;;5075898;28;20207;-66
2022/12/09 02:35:49;;;;;;;35.83;21.73;;;;;;;;;;5075645;28;20199;-65
2022/12/09 02:38:19;;;;;;;40.40;24.45;;;;;;;;;;5075295;28;20191;-66
2022/12/09 02:40:49;;;;;;;42.33;23.40;;;;;;;;;;5075277;28;20197;-66
2022/12/09 02:43:18;;;;;;;39.67;24.40;;;;;;;;;;5075966;28;20233;-65
2022/12/09 02:45:45;;;;;;;37.67;23.52;;;;;;;;;;5075556;28;20196;-65
2022/12/09 02:48:14;;;;;;;42.25;25.67;;;;;;;;;;5075610;28;20200;-65
2022/12/09 02:50:43;;;;;;;38.38;22.38;;;;;;;;;;5075386;28;20219;-65
2022/12/09 02:53:13;;;;;;;40.75;23.40;;;;;;;;;;5075613;28;20221;-65
2022/12/09 02:55:40;;;;;;;43.65;24.50;;;;;;;;;;5075127;28;20182;-65
2022/12/09 02:58:07;;;;;;;37.58;24.52;;;;;;;;;;5075454;28;20295;-66
2022/12/09 03:00:35;;;;;;;41.97;24.77;;;;;;;;;;5075082;28;20197;-65
2022/12/09 03:03:03;;;;;;;40.13;25.08;;;;;;;;;;5075813;28;20564;-65
2022/12/09 03:05:38;;;;;;;37.85;24.15;;;;;;;;;;5075285;28;20286;-65
2022/12/09 03:08:11;;;;;;;38.75;22.85;;;;;;;;;;5075345;28;20229;-65
2022/12/09 03:10:45;;;;;;;38.15;23.90;;;;;;;;;;5074765;28;20194;-65
2022/12/09 03:13:14;;;;;;;43.35;25.52;;;;;;;;;;5075663;28;20569;-65
2022/12/09 03:15:44;;;;;;;39.70;25.77;;;;;;;;;;5075090;28;20223;-66
2022/12/09 03:18:13;;;;;;;42.65;25.63;;;;;;;;;;5075043;28;20232;-66
2022/12/09 03:20:42;;;;;;;42.25;24.25;;;;;;;;;;5074739;28;20564;-65
2022/12/09 03:23:10;;;;;;;42.58;24.83;;;;;;;;;;5075074;28;20290;-65
2022/12/09 03:25:42;;;;;;;45.15;26.80;;;;;;;;;;5074758;28;20203;-65
2022/12/09 03:28:11;;;;;;;46.85;26.63;;;;;;;;;;5074722;28;20189;-65
2022/12/09 03:30:40;;;;;;;44.75;26.88;;;;;;;;;;5074829;28;20193;-65
2022/12/09 03:33:08;;;;;;;49.75;26.90;;;;;;;;;;5074328;28;20677;-65
2022/12/09 03:35:37;;;;;;;44.08;28.02;;;;;;;;;;5074624;28;20196;-65
2022/12/09 03:38:07;;;;;;;50.75;30.27;;;;;;;;;;5074568;28;20208;-65
2022/12/09 03:40:34;;;;;;;52.80;27.60;;;;;;;;;;5074580;28;20197;-65
2022/12/09 03:43:05;;;;;;;48.38;27.92;;;;;;;;;;5074560;28;20233;-65
2022/12/09 03:45:33;;;;;;;44.65;26.27;;;;;;;;;;5074818;28;20214;-66
2022/12/09 03:48:00;;;;;;;48.33;28.35;;;;;;;;;;5074088;28;20200;-65
2022/12/09 03:50:29;;;;;;;48.97;26.70;;;;;;;;;;5074431;28;20224;-66
2022/12/09 03:52:59;;;;;;;45.63;25.90;;;;;;;;;;5074141;28;20674;-66
2022/12/09 03:55:29;;;;;;;46.88;26.42;;;;;;;;;;5074190;28;20196;-66
2022/12/09 03:57:58;;;;;;;50.65;26.27;;;;;;;;;;5074199;28;20189;-65
2022/12/09 04:00:27;;;;;;;50.92;26.85;;;;;;;;;;5074256;28;20256;-65
2022/12/09 04:02:54;;;;;;;50.97;28.55;;;;;;;;;;5074108;28;20210;-65
2022/12/09 04:05:22;;;;;;;47.28;28.50;;;;;;;;;;5074131;28;20680;-66
2022/12/09 04:07:49;;;;;;;48.55;27.83;;;;;;;;;;5073564;28;20646;-65
2022/12/09 04:10:16;;;;;;;48.55;27.38;;;;;;;;;;5073883;28;20530;-65
2022/12/09 04:12:43;;;;;;;52.63;27.60;;;;;;;;;;5073751;28;20206;-66
2022/12/09 04:15:10;;;;;;;52.42;28.33;;;;;;;;;;5073664;28;20196;-65
2022/12/09 04:17:39;;;;;;;56.63;30.05;;;;;;;;;;5073484;28;20200;-65
2022/12/09 04:20:07;;;;;;;49.78;26.73;;;;;;;;;;5073645;28;20197;-66
2022/12/09 04:22:34;;;;;;;50.70;29.67;;;;;;;;;;5074007;28;20207;-66
2022/12/09 04:25:01;;;;;;;49.20;28.10;;;;;;;;;;5073557;28;20208;-66
2022/12/09 04:27:28;;;;;;;53.03;30.98;;;;;;;;;;5073582;28;20197;-66
2022/12/09 04:29:55;;;;;;;60.92;32.58;;;;;;;;;;5073382;28;20242;-66
2022/12/09 04:32:23;;;;;;;56.75;31.40;;;;;;;;;;5073284;28;20669;-66
2022/12/09 04:34:51;;;;;;;58.50;29.70;;;;;;;;;;5073630;28;20588;-65
2022/12/09 04:37:18;;;;;;;54.72;28.02;;;;;;;;;;5073814;28;20206;-66
2022/12/09 04:39:45;;;;;;;69.20;31.77;;;;;;;;;;5073277;28;20195;-66
2022/12/09 04:42:13;;;;;;;62.95;33.40;;;;;;;;;;5073169;28;20724;-65
2022/12/09 04:44:40;;;;;;;81.28;38.35;;;;;;;;;;5073279;28;20211;-66
2022/12/09 04:47:07;;;;;;;68.88;33.55;;;;;;;;;;5073532;28;20199;-65
2022/12/09 04:49:34;;;;;;;70.88;33.83;;;;;;;;;;5073396;28;20223;-65
2022/12/09 04:52:03;;;;;;;68.85;33.40;;;;;;;;;;5073360;28;20203;-65
2022/12/09 04:54:31;;;;;;;74.25;33.10;;;;;;;;;;5073215;28;20668;-65
2022/12/09 04:56:59;;;;;;;73.07;35.30;;;;;;;;;;5072074;28;20534;-65
2022/12/09 04:59:27;;;;;;;72.15;37.40;;;;;;;;;;5072447;28;20197;-65
2022/12/09 05:01:54;;;;;;;74.70;34.25;;;;;;;;;;5072466;28;20576;-65
2022/12/09 05:04:22;;;;;;;70.03;34.35;;;;;;;;;;5072686;28;20295;-65
2022/12/09 05:06:49;;;;;;;73.03;36.45;;;;;;;;;;5072743;28;20196;-65
2022/12/09 05:09:17;;;;;;;76.85;38.25;;;;;;;;;;5072293;28;20706;-65
2022/12/09 05:11:44;;;;;;;80.13;39.90;;;;;;;;;;5072666;28;20193;-65
2022/12/09 05:14:12;;;;;;;72.90;35.95;;;;;;;;;;5072082;28;20316;-65
2022/12/09 05:16:39;;;;;;;87.28;35.70;;;;;;;;;;5073151;28;20646;-65
2022/12/09 05:19:06;;;;;;;68.07;33.60;;;;;;;;;;5072235;28;20208;-66
2022/12/09 05:21:33;;;;;;;69.22;31.92;;;;;;;;;;5072998;28;20289;-65
2022/12/09 05:24:02;;;;;;;62.45;30.75;;;;;;;;;;5083007;28;20653;-66
2022/12/09 05:26:30;;;;;;;57.95;30.80;;;;;;;;;;5092850;28;20207;-65
2022/12/09 05:28:57;;;;;;;56.28;28.48;;;;;;;;;;5092976;28;20227;-66
2022/12/09 05:31:25;;;;;;;65.80;31.10;;;;;;;;;;5093145;28;20196;-66
2022/12/09 05:33:52;;;;;;;48.20;28.25;;;;;;;;;;5092500;28;20321;-66
2022/12/09 05:36:20;;;;;;;49.28;28.42;;;;;;;;;;5092873;28;20736;-66
2022/12/09 05:38:48;;;;;;;47.92;28.08;;;;;;;;;;5092653;28;20196;-66
2022/12/09 05:41:15;;;;;;;57.40;30.35;;;;;;;;;;5092350;28;20195;-65
2022/12/09 05:43:43;;;;;;;55.50;30.42;;;;;;;;;;5092190;28;20187;-66
2022/12/09 05:46:11;;;;;;;54.80;31.05;;;;;;;;;;5092580;28;20205;-65
2022/12/09 05:48:38;;;;;;;55.00;27.95;;;;;;;;;;5092725;28;20226;-66
2022/12/09 05:51:06;;;;;;;52.85;30.02;;;;;;;;;;5093002;28;20192;-66
2022/12/09 05:53:33;;;;;;;62.90;31.65;;;;;;;;;;5092742;28;20220;-66
2022/12/09 05:56:00;;;;;;;55.08;30.85;;;;;;;;;;5092848;28;20661;-65
2022/12/09 05:58:28;;;;;;;78.70;34.13;;;;;;;;;;5092880;28;20196;-65
2022/12/09 06:00:56;;;;;;;54.92;30.70;;;;;;;;;;5092945;28;20627;-66
2022/12/09 06:03:24;;;;;;;60.15;31.08;;;;;;;;;;5093275;28;20198;-65
2022/12/09 06:05:51;;;;;;;63.30;32.15;;;;;;;;;;5093147;28;20285;-66
2022/12/09 06:08:18;;;;;;;67.22;34.55;;;;;;;;;;5092326;28;20199;-67
2022/12/09 06:10:46;;;;;;;63.65;32.88;;;;;;;;;;5092967;28;20526;-69
2022/12/09 06:13:13;;;;;;;71.35;33.65;;;;;;;;;;5093127;28;20201;-65
2022/12/09 06:15:40;;;;;;;63.15;32.90;;;;;;;;;;5096156;28;20195;-66
2022/12/09 06:18:08;;;;;;;91.15;32.25;;;;;;;;;;5095879;28;20191;-65
2022/12/09 06:20:39;;;;;;;117.10;35.08;;;;;;;;;;5096322;28;20191;-66
2022/12/09 06:23:06;;;;;;;97.60;35.83;;;;;;;;;;5096044;28;20194;-66
2022/12/09 06:25:33;;;;;;;74.55;34.88;;;;;;;;;;5096042;28;20649;-65
2022/12/09 06:28:00;;;;;;;106.57;35.50;;;;;;;;;;5096342;28;20196;-66
2022/12/09 06:30:28;;;;;;;110.85;34.22;;;;;;;;;;5096211;28;20657;-66
2022/12/09 06:32:55;;;;;;;77.65;33.25;;;;;;;;;;5096097;28;20537;-65
2022/12/09 06:35:23;;;;;;;72.45;31.27;;;;;;;;;;5095923;28;20227;-65
2022/12/09 06:37:52;;;;;;;128.25;33.45;;;;;;;;;;5095774;28;20209;-65
2022/12/09 06:40:20;;;;;;;73.82;32.03;;;;;;;;;;5096071;28;20200;-66
2022/12/09 06:42:49;;;;;;;72.50;35.10;;;;;;;;;;5095842;28;20331;-65
2022/12/09 06:45:16;;;;;;;99.50;44.35;;;;;;;;;;5095832;28;20207;-65
2022/12/09 06:47:43;;;;;;;114.40;41.38;;;;;;;;;;5096215;28;20203;-65
2022/12/09 06:50:11;;;;;;;68.03;32.95;;;;;;;;;;5095758;28;20198;-65
2022/12/09 06:52:40;;;;;;;73.03;33.53;;;;;;;;;;5095576;28;20664;-64
2022/12/09 06:55:08;;;;;;;62.00;32.75;;;;;;;;;;5095576;28;20218;-65
2022/12/09 06:57:35;;;;;;;71.50;33.42;;;;;;;;;;5095669;28;20222;-65
2022/12/09 07:00:03;;;;;;;75.80;34.30;;;;;;;;;;5095589;28;20191;-65
2022/12/09 07:02:30;;;;;;;70.85;33.78;;;;;;;;;;5095653;28;20196;-65
2022/12/09 07:04:57;;;;;;;70.35;35.08;;;;;;;;;;5095681;28;20544;-66
2022/12/09 07:07:24;;;;;;;70.90;35.25;;;;;;;;;;5095544;28;20205;-65
2022/12/09 07:09:53;;;;;;;71.20;33.95;;;;;;;;;;5095416;28;20196;-65
2022/12/09 07:12:20;;;;;;;64.90;32.20;;;;;;;;;;5095642;28;20633;-65
2022/12/09 07:14:47;;;;;;;61.70;32.83;;;;;;;;;;5094943;28;20253;-66
2022/12/09 07:17:16;;;;;;;59.08;30.63;;;;;;;;;;5095390;28;20191;-65
2022/12/09 07:19:43;;;;;;;63.30;33.33;;;;;;;;;;5095530;28;20194;-65
2022/12/09 07:22:10;;;;;;;58.78;31.80;;;;;;;;;;5094874;28;20727;-65
2022/12/09 07:24:38;;;;;;;63.40;30.65;;;;;;;;;;5094824;28;20205;-65
2022/12/09 07:27:07;;;;;;;66.78;32.55;;;;;;;;;;5095269;28;20198;-65
2022/12/09 07:29:35;;;;;;;66.05;32.38;;;;;;;;;;5094862;28;20210;-66
2022/12/09 07:32:02;;;;;;;71.68;35.38;;;;;;;;;;5095534;28;20194;-65
2022/12/09 07:34:29;;;;;;;64.05;33.60;;;;;;;;;;5094506;28;20222;-64
2022/12/09 07:36:56;;;;;;;66.30;33.28;;;;;;;;;;5094961;28;20312;-65
2022/12/09 07:39:24;;;;;;;63.15;33.72;;;;;;;;;;5094758;28;20197;-65
2022/12/09 07:41:52;;;;;;;72.65;32.10;;;;;;;;;;5094921;28;20221;-65
2022/12/09 07:44:21;;;;;;;75.63;35.22;;;;;;;;;;5095136;28;20561;-65
2022/12/09 07:46:48;;;;;;;90.60;37.53;;;;;;;;;;5094779;28;20191;-65
2022/12/09 07:49:15;;;;;;;70.50;32.25;;;;;;;;;;5094652;28;20213;-65
2022/12/09 07:51:43;;;;;;;79.85;36.58;;;;;;;;;;5095205;28;20217;-65
2022/12/09 07:54:12;;;;;;;82.07;37.50;;;;;;;;;;5094218;28;20224;-64
2022/12/09 07:56:39;;;;;;;81.95;34.22;;;;;;;;;;5094932;28;20200;-65
2022/12/09 07:59:07;;;;;;;68.75;33.65;;;;;;;;;;5094727;28;20198;-65
2022/12/09 08:01:36;;;;;;;88.07;37.28;;;;;;;;;;5094057;28;20195;-65
2022/12/09 08:04:05;;;;;;;75.10;37.35;;;;;;;;;;5094418;28;20200;-64
2022/12/09 08:06:32;;;;;;;75.30;32.55;;;;;;;;;;5094006;28;20198;-65
2022/12/09 08:08:59;;;;;;;79.85;36.20;;;;;;;;;;5094029;28;20562;-64
2022/12/09 08:11:27;;;;;;;82.22;37.33;;;;;;;;;;5094540;28;20201;-66
2022/12/09 08:13:56;;;;;;;84.18;39.10;;;;;;;;;;5093917;28;20286;-65
2022/12/09 08:16:24;;;;;;;70.63;33.90;;;;;;;;;;5093749;28;20233;-65
2022/12/09 08:18:52;;;;;;;72.30;36.83;;;;;;;;;;5093814;28;20290;-65
2022/12/09 08:21:20;;;;;;;75.93;34.88;;;;;;;;;;5094013;28;20551;-66
2022/12/09 08:23:48;;;;;;;78.68;38.22;;;;;;;;;;5093801;28;20204;-65
2022/12/09 08:26:17;;;;;;;79.35;37.33;;;;;;;;;;5094034;28;20211;-65
2022/12/09 08:28:44;;;;;;;78.10;35.35;;;;;;;;;;5094043;28;20202;-65
2022/12/09 08:31:14;;;;;;;73.57;37.35;;;;;;;;;;5093913;28;20201;-65
2022/12/09 08:33:41;;;;;;;75.38;34.92;;;;;;;;;;5093960;28;20204;-65
2022/12/09 08:36:11;;;;;;;86.72;37.47;;;;;;;;;;5093184;28;20265;-65
2022/12/09 08:38:39;;;;;;;68.43;33.10;;;;;;;;;;5094617;28;20204;-65
2022/12/09 08:41:10;;;;;;;78.03;37.50;;;;;;;;;;5093687;28;20196;-65
2022/12/09 08:43:38;;;;;;;69.25;33.45;;;;;;;;;;5093583;28;20184;-65
2022/12/09 08:46:05;;;;;;;73.50;32.60;;;;;;;;;;5093550;28;20215;-65
2022/12/09 08:48:34;;;;;;;80.45;37.55;;;;;;;;;;5093754;28;20192;-65
2022/12/09 08:51:01;;;;;;;71.00;34.88;;;;;;;;;;5093634;28;20636;-65
2022/12/09 08:53:30;;;;;;;69.72;33.67;;;;;;;;;;5093733;28;20285;-64
2022/12/09 08:55:57;;;;;;;67.80;33.75;;;;;;;;;;5093833;28;20649;-66
2022/12/09 08:58:24;;;;;;;62.83;32.75;;;;;;;;;;5093627;28;20191;-65
2022/12/09 09:00:51;;;;;;;66.55;30.98;;;;;;;;;;5093237;28;20202;-65
2022/12/09 09:03:19;;;;;;;71.57;32.00;;;;;;;;;;5093225;28;20283;-65
2022/12/09 09:05:46;;;;;;;61.08;30.85;;;;;;;;;;5093153;28;20195;-66
2022/12/09 09:08:13;;;;;;;58.13;32.85;;;;;;;;;;5093343;28;20671;-65
2022/12/09 09:10:41;;;;;;;63.65;31.98;;;;;;;;;;5093359;28;20551;-65
2022/12/09 09:13:09;;;;;;;61.28;32.05;;;;;;;;;;5093146;28;20196;-65
2022/12/09 09:15:39;;;;;;;56.15;30.05;;;;;;;;;;5093726;28;20250;-65
2022/12/09 09:18:06;;;;;;;56.75;31.45;;;;;;;;;;5093562;28;20200;-65
2022/12/09 09:20:33;;;;;;;62.45;31.10;;;;;;;;;;5093476;28;20291;-65
2022/12/09 09:23:00;;;;;;;56.80;31.02;;;;;;;;;;5093410;28;20199;-66
2022/12/09 09:25:27;;;;;;;57.92;31.92;;;;;;;;;;5092955;28;20202;-65
2022/12/09 09:27:56;;;;;;;54.28;27.88;;;;;;;;;;5093301;28;20196;-65
2022/12/09 09:30:23;;;;;;;52.40;28.88;;;;;;;;;;5093371;28;20287;-65
2022/12/09 09:32:50;;;;;;;57.05;28.88;;;;;;;;;;5093192;28;20210;-66
2022/12/09 09:35:18;;;;;;;52.45;29.05;;;;;;;;;;5092955;28;20220;-65
2022/12/09 09:37:45;;;;;;;55.15;28.65;;;;;;;;;;5092896;28;20657;-65
2022/12/09 09:40:12;;;;;;;61.78;31.17;;;;;;;;;;5093155;28;20286;-65
2022/12/09 09:42:47;;;;;;;53.53;30.15;;;;;;;;;;5092638;28;20225;-65
2022/12/09 09:45:17;;;;;;;51.75;30.10;;;;;;;;;;5092964;28;20185;-65
2022/12/09 09:47:47;;;;;;;51.88;30.35;;;;;;;;;;5094508;28;20187;-65
2022/12/09 09:50:22;;;;;;;58.85;30.63;;;;;;;;;;5096700;28;20193;-65
2022/12/09 09:52:50;;;;;;;57.70;29.70;;;;;;;;;;5097032;28;20213;-65
2022/12/09 09:55:19;;;;;;;54.45;31.02;;;;;;;;;;5096604;28;20219;-65
2022/12/09 09:57:47;;;;;;;50.05;30.02;;;;;;;;;;5096828;28;20537;-65
2022/12/09 10:00:21;;;;;;;60.35;31.67;;;;;;;;;;5096877;28;20194;-65
2022/12/09 10:02:57;;;;;;;49.42;30.23;;;;;;;;;;5096604;28;20634;-65
2022/12/09 10:05:25;;;;;;;54.30;31.05;;;;;;;;;;5096790;28;20186;-65
2022/12/09 10:07:55;;;;;;;54.50;30.63;;;;;;;;;;5096344;28;20192;-65
2022/12/09 10:10:27;;;;;;;47.80;30.92;;;;;;;;;;5096848;28;20191;-65
2022/12/09 10:12:59;;;;;;;54.08;31.05;;;;;;;;;;5096256;28;20279;-64
2022/12/09 10:15:29;;;;;;;54.58;28.92;;;;;;;;;;5096676;28;20302;-66
2022/12/09 10:18:05;;;;;;;57.38;34.03;;;;;;;;;;5096543;28;20197;-64
2022/12/09 10:20:33;;;;;;;51.53;30.30;;;;;;;;;;5096580;28;20260;-65
2022/12/09 10:23:02;;;;;;;56.38;31.13;;;;;;;;;;5096124;28;20653;-65
2022/12/09 10:25:30;;;;;;;53.97;30.58;;;;;;;;;;5096394;28;20204;-64
2022/12/09 10:28:02;;;;;;;58.70;29.30;;;;;;;;;;5096297;28;20291;-65
2022/12/09 10:30:30;;;;;;;54.75;32.67;;;;;;;;;;5096749;28;20243;-65
2022/12/09 10:32:57;;;;;;;54.17;29.08;;;;;;;;;;5096143;28;20202;-65
2022/12/09 10:35:26;;;;;;;53.92;32.42;;;;;;;;;;5096096;28;20674;-65
2022/12/09 10:37:54;;;;;;;50.22;29.15;;;;;;;;;;5096064;28;20280;-65
2022/12/09 10:40:24;;;;;;;48.30;29.95;;;;;;;;;;5096130;28;20545;-65
2022/12/09 10:45:35;;;;;;;58.28;30.77;;;;;;;;;;5083218;28;20589;-65
2022/12/09 10:48:02;;;;;;;59.78;33.13;;;;;;;;;;5095530;28;20204;-65
2022/12/09 10:50:31;;;;;;;72.38;34.10;;;;;;;;;;5096412;28;20287;-65
2022/12/09 10:52:59;;;;;;;59.47;33.95;;;;;;;;;;5095454;28;20193;-65
2022/12/09 10:55:30;;;;;;;66.88;34.75;;;;;;;;;;5095760;28;20233;-65
2022/12/09 10:58:10;;;;;;;71.47;37.88;;;;;;;;;;5095910;28;20183;-66
2022/12/09 11:00:38;;;;;;;75.25;38.42;;;;;;;;;;5095319;28;20210;-65
2022/12/09 11:03:22;;;;;;;77.53;38.97;;;;;;;;;;5095733;28;20547;-65
2022/12/09 11:05:55;;;;;;;76.78;39.20;;;;;;;;;;5096129;28;20198;-65
2022/12/09 11:08:23;;;;;;;76.47;39.33;;;;;;;;;;5095645;28;20276;-65
2022/12/09 11:10:50;;;;;;;80.55;39.85;;;;;;;;;;5095564;28;20195;-65
2022/12/09 11:13:19;;;;;;;71.97;38.13;;;;;;;;;;5095362;28;20195;-65
2022/12/09 11:15:52;;;;;;;75.88;37.45;;;;;;;;;;5095299;28;20242;-65
2022/12/09 11:18:21;;;;;;;89.82;40.67;;;;;;;;;;5095523;28;20600;-65
2022/12/09 11:20:55;;;;;;;77.15;40.67;;;;;;;;;;5094914;28;20196;-65
2022/12/09 11:23:22;;;;;;;83.10;41.17;;;;;;;;;;5094818;28;20197;-65
2022/12/09 11:25:54;;;;;;;69.70;38.55;;;;;;;;;;5095454;28;20320;-65
2022/12/09 11:28:26;;;;;;;73.07;40.03;;;;;;;;;;5094779;28;20204;-65
2022/12/09 11:30:56;;;;;;;80.10;40.20;;;;;;;;;;5094862;28;20184;-65
2022/12/09 11:33:25;;;;;;;80.43;41.67;;;;;;;;;;5094962;28;20202;-65
2022/12/09 11:35:55;;;;;;;74.15;37.35;;;;;;;;;;5094573;28;20224;-65
2022/12/09 11:38:26;;;;;;;75.90;40.50;;;;;;;;;;5094846;28;20546;-65
2022/12/09 11:41:04;;;;;;;74.82;39.60;;;;;;;;;;5094733;28;20294;-65
2022/12/09 11:43:37;;;;;;;71.13;37.40;;;;;;;;;;5095076;28;20203;-65
2022/12/09 11:46:15;;;;;;;66.40;34.72;;;;;;;;;;5095005;28;20198;-64
2022/12/09 11:48:48;;;;;;;67.38;35.25;;;;;;;;;;5094924;28;20271;-65
2022/12/09 11:51:20;;;;;;;69.03;38.38;;;;;;;;;;5095212;28;20543;-66
2022/12/09 11:53:47;;;;;;;71.25;39.25;;;;;;;;;;5094487;28;20185;-65
2022/12/09 11:56:17;;;;;;;78.63;40.53;;;;;;;;;;5094176;28;20213;-65
2022/12/09 11:58:47;;;;;;;69.03;36.70;;;;;;;;;;5094148;28;20733;-65
2022/12/09 12:01:20;;;;;;;74.05;39.25;;;;;;;;;;5094879;28;20346;-65
2022/12/09 12:03:50;;;;;;;71.97;38.13;;;;;;;;;;5094073;28;20185;-65
2022/12/09 12:06:21;;;;;;;70.05;40.13;;;;;;;;;;5094438;28;20204;-65
2022/12/09 12:08:49;;;;;;;74.22;39.92;;;;;;;;;;5094093;28;20265;-65
2022/12/09 12:11:18;;;;;;;68.93;38.17;;;;;;;;;;5092960;28;20646;-65
2022/12/09 12:13:46;;;;;;;77.82;39.08;;;;;;;;;;5094395;28;20191;-66
2022/12/09 12:16:19;;;;;;;75.95;37.20;;;;;;;;;;5093807;28;20223;-65
2022/12/09 12:18:49;;;;;;;64.50;38.33;;;;;;;;;;5094485;28;20192;-65
2022/12/09 12:21:33;;;;;;;69.07;39.08;;;;;;;;;;5094481;28;20278;-65
2022/12/09 12:24:09;;;;;;;68.38;37.10;;;;;;;;;;5093761;28;20245;-65
2022/12/09 12:26:40;;;;;;;63.67;35.50;;;;;;;;;;5094538;28;20192;-65
2022/12/09 12:29:19;;;;;;;74.57;40.72;;;;;;;;;;5093686;28;20273;-65
2022/12/09 12:31:59;;;;;;;70.80;35.00;;;;;;;;;;5093758;28;20188;-65
2022/12/09 12:34:30;;;;;;;65.63;33.22;;;;;;;;;;5093629;28;20274;-65
2022/12/09 12:37:02;;;;;;;58.88;33.55;;;;;;;;;;5093983;28;20610;-65
2022/12/09 12:39:35;;;;;;;73.07;35.17;;;;;;;;;;5094091;28;20273;-65
2022/12/09 12:42:07;;;;;;;61.42;34.22;;;;;;;;;;5093989;28;20681;-65
2022/12/09 12:47:28;;;;;;;63.85;33.63;;;;;;;;;;5093679;28;20235;-66
2022/12/09 12:50:01;;;;;;;68.03;34.47;;;;;;;;;;5093364;28;20183;-65
2022/12/09 12:52:37;;;;;;;65.70;36.90;;;;;;;;;;5093939;28;20185;-65
2022/12/09 12:55:12;;;;;;;61.95;34.78;;;;;;;;;;5093909;28;20270;-65
2022/12/09 12:57:45;;;;;;;62.03;35.08;;;;;;;;;;5094549;28;20274;-65
2022/12/09 13:00:13;;;;;;;58.13;34.20;;;;;;;;;;5093605;28;20526;-65
2022/12/09 13:02:45;;;;;;;65.22;35.55;;;;;;;;;;5093331;28;20283;-65
2022/12/09 13:05:16;;;;;;;72.25;36.55;;;;;;;;;;5093596;28;20188;-65
2022/12/09 13:07:46;;;;;;;58.53;35.75;;;;;;;;;;5093752;28;20272;-65
2022/12/09 13:10:16;;;;;;;57.15;33.03;;;;;;;;;;5093420;28;20198;-65
2022/12/09 13:12:57;;;;;;;61.33;34.20;;;;;;;;;;5094009;28;20195;-65
2022/12/09 13:15:35;;;;;;;70.57;34.92;;;;;;;;;;5093069;28;20202;-65
2022/12/09 13:18:06;;;;;;;53.25;32.42;;;;;;;;;;5093584;28;20189;-65
2022/12/09 13:20:36;;;;;;;55.92;32.28;;;;;;;;;;5093467;28;20185;-65
2022/12/09 13:23:06;;;;;;;59.03;32.88;;;;;;;;;;5095276;28;20282;-65
2022/12/09 13:25:39;;;;;;;55.22;30.65;;;;;;;;;;5097420;28;20285;-65
2022/12/09 13:28:08;;;;;;;56.90;32.58;;;;;;;;;;5097891;28;20270;-66
2022/12/09 13:30:38;;;;;;;54.45;30.85;;;;;;;;;;5097404;28;20240;-66
2022/12/09 13:33:16;;;;;;;54.60;30.35;;;;;;;;;;5097071;28;20284;-65
2022/12/09 13:35:45;;;;;;;51.63;32.38;;;;;;;;;;5097206;28;20216;-66
2022/12/09 13:38:25;;;;;;;55.50;32.28;;;;;;;;;;5097404;28;20736;-65
2022/12/09 13:40:52;;;;;;;47.40;30.42;;;;;;;;;;5096685;28;20743;-66
2022/12/09 13:43:22;;;;;;;54.67;32.60;;;;;;;;;;5097448;28;20327;-68
2022/12/09 13:45:51;;;;;;;50.08;31.25;;;;;;;;;;5097224;28;20284;-65
2022/12/09 13:48:37;;;;;;;65.00;32.55;;;;;;;;;;5097173;28;20192;-64
2022/12/09 13:51:06;;;;;;;52.35;30.75;;;;;;;;;;5096719;28;20285;-63
2022/12/09 13:53:33;;;;;;;52.72;31.98;;;;;;;;;;5096997;28;20199;-63
2022/12/09 13:56:05;;;;;;;49.47;29.33;;;;;;;;;;5096792;28;20214;-65
2022/12/09 13:58:56;;;;;;;61.13;32.05;;;;;;;;;;5097264;28;20188;-64
2022/12/09 14:01:26;;;;;;;53.30;30.00;;;;;;;;;;5096557;28;20185;-65
2022/12/09 14:03:56;;;;;;;58.00;30.73;;;;;;;;;;5096827;28;20201;-64
2022/12/09 14:06:30;;;;;;;53.55;31.60;;;;;;;;;;5096856;28;20597;-64
2022/12/09 14:09:00;;;;;;;51.35;30.17;;;;;;;;;;5079626;28;20192;-65
2022/12/09 14:11:40;;;;;;;59.33;31.30;;;;;;;;;;5074644;28;20196;-65
2022/12/09 14:14:26;;;;;;;49.28;29.45;;;;;;;;;;5075227;28;20196;-64
2022/12/09 14:16:54;;;;;;;61.22;31.70;;;;;;;;;;5075255;28;20221;-65
2022/12/09 14:19:39;;;;;;;51.90;29.13;;;;;;;;;;5075712;28;20201;-64
2022/12/09 14:22:25;;;;;;;53.15;30.42;;;;;;;;;;5075452;28;20200;-65
2022/12/09 14:24:54;;;;;;;52.83;31.65;;;;;;;;;;5075290;28;20662;-65
2022/12/09 14:27:22;;;;;;;63.13;31.30;;;;;;;;;;5075571;28;20204;-64
2022/12/09 14:29:51;;;;;;;55.28;30.98;;;;;;;;;;5075288;28;20197;-64
2022/12/09 14:32:20;;;;;;;56.45;32.45;;;;;;;;;;5075369;28;20196;-64
2022/12/09 14:34:49;;;;;;;56.08;30.08;;;;;;;;;;5074229;28;20733;-65